Nissho Maru No.18 — JG5001 — position and weather

sailwx.info

Track history (hours):
 
Tides and Currents Weather Stations Pressure Air Temp Water Temp Dewpoint Dewpoint Depression Visibility Wind Speed Wind Dir Waves Ship Positions

Nissho Maru No.18

Last reported at 2018-Apr-25 21:57 UTC. Time now 2018-Apr-26 01:24 UTC.
Position N 35°31' E 140°02'.

Length 76 m; draft 4.7 m.

Type: Tanker. MMSI: 431101028.

Date/timePositionNaut miles runAvg speedWind from/ knotsBaromVisibWave heightAir tempDewpointWater temp
2018-Apr-25 21:57N 35°31' E 140°02'2 5.1
2018-Apr-25 21:30N 35°30' E 139°60'3 6.2
2018-Apr-25 21:00N 35°29' E 139°56'0 0.0
2018-Apr-25 20:23N 35°29' E 139°56'0 0.0
2018-Apr-25 19:59N 35°29' E 139°56'0 0.0
2018-Apr-25 19:29N 35°29' E 139°56'0 0.0
2018-Apr-25 18:56N 35°29' E 139°56'0 0.0
2018-Apr-25 18:29N 35°29' E 139°56'0 0.0
2018-Apr-25 17:59N 35°29' E 139°56'0 0.0
2018-Apr-25 17:29N 35°29' E 139°56'0 0.0
2018-Apr-25 16:59N 35°29' E 139°56'0 0.0
2018-Apr-25 16:29N 35°29' E 139°56'0 0.0
2018-Apr-25 15:53N 35°29' E 139°56'0 0.0
2018-Apr-25 15:29N 35°29' E 139°56'0 0.1
2018-Apr-25 14:59N 35°29' E 139°57'0 0.1
2018-Apr-25 14:26N 35°29' E 139°56'0 0.0
2018-Apr-25 13:53N 35°29' E 139°56'0 0.0
2018-Apr-25 13:29N 35°29' E 139°56'0 0.0
2018-Apr-25 12:53N 35°29' E 139°56'0 0.0
2018-Apr-25 12:20N 35°29' E 139°56'0 0.1
2018-Apr-25 11:53N 35°29' E 139°57'0 0.1
2018-Apr-25 11:26N 35°29' E 139°56'0 0.1
2018-Apr-25 10:56N 35°29' E 139°57'0 0.0
2018-Apr-25 10:29N 35°29' E 139°57'0 0.0
2018-Apr-25 09:59N 35°29' E 139°57'0 0.0
2018-Apr-25 09:29N 35°29' E 139°57'0 0.0
2018-Apr-25 08:59N 35°29' E 139°57'0 0.0
2018-Apr-25 08:26N 35°29' E 139°57'0 0.0
2018-Apr-25 07:59N 35°29' E 139°57'0 0.0
2018-Apr-25 07:26N 35°29' E 139°57'0 0.1
2018-Apr-25 06:29N 35°29' E 139°57'0 0.0
2018-Apr-25 05:59N 35°29' E 139°57'0 0.1
2018-Apr-25 05:23N 35°29' E 139°57'0 0.0
2018-Apr-25 04:56N 35°29' E 139°57'0 0.0
2018-Apr-25 04:11N 35°29' E 139°57'0 0.0
2018-Apr-25 03:59N 35°29' E 139°57'0 0.0
2018-Apr-25 03:29N 35°29' E 139°57'0 0.1
2018-Apr-25 02:53N 35°29' E 139°57'0 0.0
2018-Apr-25 02:29N 35°29' E 139°57'0 0.0
2018-Apr-25 01:59N 35°29' E 139°57'0 0.0
2018-Apr-25 01:23N 35°29' E 139°57'0 0.0
2018-Apr-25 00:59N 35°29' E 139°57'0 0.0
2018-Apr-25 00:29N 35°29' E 139°57'0 0.0
2018-Apr-24 23:50N 35°29' E 139°57'0 0.0
2018-Apr-24 23:26N 35°29' E 139°57'0 0.0
2018-Apr-24 22:53N 35°29' E 139°57'0 0.0
2018-Apr-24 22:17N 35°29' E 139°57'0 0.0
2018-Apr-24 21:53N 35°29' E 139°57'0 0.0
2018-Apr-24 21:29N 35°29' E 139°57'0 0.0
2018-Apr-24 20:26N 35°29' E 139°57'0 0.0
2018-Apr-24 19:59N 35°29' E 139°57'0 0.0
2018-Apr-24 19:17N 35°29' E 139°57'0 0.0
2018-Apr-24 18:59N 35°29' E 139°57'0 0.0
2018-Apr-24 18:29N 35°29' E 139°57'0 0.0
2018-Apr-24 17:56N 35°29' E 139°57'0 0.0
2018-Apr-24 17:29N 35°29' E 139°57'0 0.0
2018-Apr-24 16:59N 35°29' E 139°57'0 0.0
2018-Apr-24 16:29N 35°29' E 139°57'0 0.0
2018-Apr-24 15:56N 35°29' E 139°57'0 0.0
2018-Apr-24 15:29N 35°29' E 139°57'0 0.0
2018-Apr-24 14:56N 35°29' E 139°57'0 0.0
2018-Apr-24 14:29N 35°29' E 139°57'0 0.0
2018-Apr-24 13:59N 35°29' E 139°57'0 0.0
2018-Apr-24 13:29N 35°29' E 139°57'0 0.1
2018-Apr-24 12:59N 35°29' E 139°57'0 0.0
2018-Apr-24 12:23N 35°29' E 139°57'0 0.0
2018-Apr-24 11:38N 35°29' E 139°57'0 0.0
2018-Apr-24 11:11N 35°29' E 139°57'0 0.0
2018-Apr-24 10:53N 35°29' E 139°57'0 0.0
2018-Apr-24 10:23N 35°29' E 139°57'0 0.0
2018-Apr-24 09:56N 35°29' E 139°57'0 0.1
2018-Apr-24 09:29N 35°29' E 139°57'0 0.0
2018-Apr-24 08:59N 35°29' E 139°57'0 0.1
2018-Apr-24 08:30N 35°29' E 139°57'611.7
2018-Apr-24 08:00N 35°33' E 140°02'4 8.9
2018-Apr-24 07:30N 35°36' E 140°05'0 0.0
2018-Apr-24 06:55N 35°36' E 140°05'0 0.0
2018-Apr-24 06:25N 35°36' E 140°05'0 0.0
2018-Apr-24 05:58N 35°36' E 140°05'0 0.0
2018-Apr-24 05:28N 35°36' E 140°05'0 0.0
2018-Apr-24 04:56N 35°36' E 140°05'3 7.9
2018-Apr-24 04:30N 35°34' E 140°02'612.2
2018-Apr-24 04:00N 35°31' E 139°55'612.1
2018-Apr-24 03:30N 35°27' E 139°50'612.3
2018-Apr-24 03:00N 35°24' E 139°43'3 5.6
2018-Apr-24 02:28N 35°25' E 139°39'0 0.0
2018-Apr-24 01:58N 35°25' E 139°39'0 0.0
2018-Apr-24 01:28N 35°25' E 139°39'0 0.0
2018-Apr-24 00:58N 35°25' E 139°39'0 0.0
2018-Apr-24 00:28N 35°25' E 139°39'0 0.0
2018-Apr-23 23:58N 35°25' E 139°39'0 0.2
2018-Apr-23 23:29N 35°24' E 139°39'2 3.2
2018-Apr-23 23:00N 35°23' E 139°41'5 9.1
2018-Apr-23 22:30N 35°26' E 139°45'813.7
2018-Apr-23 21:56N 35°31' E 139°53'613.4
2018-Apr-23 21:29N 35°34' E 139°59'2 3.7
2018-Apr-23 21:00N 35°35' E 140°01'0 0.2
2018-Apr-23 20:30N 35°36' E 140°01'0 0.2
2018-Apr-23 20:00N 35°35' E 140°01'0 0.0
2018-Apr-23 19:30N 35°35' E 140°01'0 0.0
2018-Apr-23 19:00N 35°35' E 140°01'0 0.0
2018-Apr-23 18:30N 35°35' E 140°01'0 0.0
2018-Apr-23 18:00N 35°35' E 140°01'0 0.0
2018-Apr-23 17:30N 35°35' E 140°01'0 0.0
2018-Apr-23 17:00N 35°35' E 140°01'0 0.0
2018-Apr-23 16:30N 35°35' E 140°01'0 0.0
2018-Apr-23 16:00N 35°35' E 140°01'0 0.0
2018-Apr-23 15:30N 35°35' E 140°01'0 0.0
2018-Apr-23 15:00N 35°35' E 140°01'0 0.0
2018-Apr-23 14:30N 35°35' E 140°01'0 0.0
2018-Apr-23 14:00N 35°35' E 140°01'0 0.0
2018-Apr-23 13:30N 35°35' E 140°01'0 0.0
2018-Apr-23 13:00N 35°35' E 140°01'0 0.0
2018-Apr-23 12:30N 35°35' E 140°01'0 0.0
2018-Apr-23 12:00N 35°35' E 140°01'0 0.0
2018-Apr-23 11:30N 35°35' E 140°01'0 0.0
2018-Apr-23 11:00N 35°35' E 140°01'0 0.0
2018-Apr-23 10:30N 35°35' E 140°01'0 0.0
2018-Apr-23 10:00N 35°35' E 140°01'0 0.0
2018-Apr-23 09:30N 35°35' E 140°01'0 0.0
2018-Apr-23 09:00N 35°35' E 140°01'0 0.0
2018-Apr-23 08:30N 35°35' E 140°01'4 7.5
2018-Apr-23 08:00N 35°36' E 140°05'0 0.1
2018-Apr-23 07:27N 35°36' E 140°05'0 0.0
2018-Apr-23 07:00N 35°36' E 140°05'0 0.0
2018-Apr-23 06:27N 35°36' E 140°05'0 0.0
2018-Apr-23 05:57N 35°36' E 140°05'0 0.0
2018-Apr-23 05:27N 35°36' E 140°05'0 0.0
2018-Apr-23 04:57N 35°36' E 140°05'4 7.9
2018-Apr-23 04:30N 35°34' E 140°02'611.8
2018-Apr-23 04:00N 35°31' E 139°56'611.6
2018-Apr-23 03:30N 35°27' E 139°50'611.4
2018-Apr-23 03:00N 35°24' E 139°44'4 7.4
2018-Apr-23 02:30N 35°25' E 139°39'0 0.0
2018-Apr-23 02:00N 35°25' E 139°39'0 0.0
2018-Apr-23 01:30N 35°25' E 139°39'0 0.0
2018-Apr-23 01:00N 35°25' E 139°39'0 0.0
2018-Apr-23 00:30N 35°25' E 139°39'0 0.0
2018-Apr-23 00:00N 35°25' E 139°39'0 0.0
2018-Apr-22 23:30N 35°25' E 139°39'1 2.3
2018-Apr-22 23:00N 35°24' E 139°40'4 8.4
2018-Apr-22 22:30N 35°26' E 139°45'611.3
2018-Apr-22 22:00N 35°29' E 139°50'612.1
2018-Apr-22 21:30N 35°32' E 139°57'612.1
2018-Apr-22 21:00N 35°35' E 140°03'3 5.7
2018-Apr-22 20:30N 35°36' E 140°06'0 0.0
2018-Apr-22 19:55N 35°36' E 140°06'0 0.0
2018-Apr-22 19:25N 35°36' E 140°06'0 0.0
2018-Apr-22 18:55N 35°36' E 140°06'0 0.0
2018-Apr-22 18:28N 35°36' E 140°06'0 0.0
2018-Apr-22 17:58N 35°36' E 140°06'0 0.0
2018-Apr-22 17:25N 35°36' E 140°06'0 0.0
2018-Apr-22 16:49N 35°36' E 140°06'0 0.0
2018-Apr-22 16:25N 35°36' E 140°06'0 0.0
2018-Apr-22 15:55N 35°36' E 140°06'0 0.0
2018-Apr-22 15:25N 35°36' E 140°06'0 0.0
2018-Apr-22 14:55N 35°36' E 140°06'0 0.0
2018-Apr-22 14:25N 35°36' E 140°06'0 0.0
2018-Apr-22 13:58N 35°36' E 140°06'0 0.0
2018-Apr-22 13:25N 35°36' E 140°06'0 0.0
2018-Apr-22 12:55N 35°36' E 140°06'0 0.0
2018-Apr-22 12:25N 35°36' E 140°06'0 0.0
2018-Apr-22 11:55N 35°36' E 140°06'0 0.0
2018-Apr-22 11:25N 35°36' E 140°06'0 0.0
2018-Apr-22 10:55N 35°36' E 140°06'0 0.0
2018-Apr-22 10:25N 35°36' E 140°06'0 0.0
2018-Apr-22 09:55N 35°36' E 140°06'0 0.0
2018-Apr-22 09:25N 35°36' E 140°06'0 0.0
2018-Apr-22 08:55N 35°36' E 140°06'0 0.0
2018-Apr-22 08:25N 35°36' E 140°06'0 0.0
2018-Apr-22 07:58N 35°36' E 140°06'0 0.0
2018-Apr-22 07:25N 35°36' E 140°06'0 0.0
2018-Apr-22 06:55N 35°36' E 140°06'0 0.0
2018-Apr-22 06:25N 35°36' E 140°06'0 0.0
2018-Apr-22 05:55N 35°36' E 140°06'0 0.0
2018-Apr-22 05:28N 35°36' E 140°06'0 0.0
2018-Apr-22 04:55N 35°36' E 140°06'0 0.0
2018-Apr-22 04:28N 35°36' E 140°06'0 0.0
2018-Apr-22 03:55N 35°36' E 140°06'0 0.0
2018-Apr-22 03:25N 35°36' E 140°06'0 0.0
2018-Apr-22 02:58N 35°36' E 140°06'0 0.0
2018-Apr-22 02:25N 35°36' E 140°06'0 0.0
2018-Apr-22 01:58N 35°36' E 140°06'0 0.0
2018-Apr-22 01:28N 35°36' E 140°06'0 0.0
2018-Apr-22 00:55N 35°36' E 140°06'0 0.0
2018-Apr-22 00:28N 35°36' E 140°06'0 0.0
2018-Apr-21 23:55N 35°36' E 140°06'0 0.0
2018-Apr-21 23:25N 35°36' E 140°06'0 0.0
2018-Apr-21 22:58N 35°36' E 140°06'0 0.0
2018-Apr-21 22:25N 35°36' E 140°06'0 0.0
2018-Apr-21 21:58N 35°36' E 140°06'0 0.0
2018-Apr-21 21:25N 35°36' E 140°06'0 0.0
2018-Apr-21 20:55N 35°36' E 140°06'0 0.0
2018-Apr-21 20:28N 35°36' E 140°06'0 0.0
2018-Apr-21 19:55N 35°36' E 140°06'0 0.0
2018-Apr-21 19:25N 35°36' E 140°06'0 0.0
2018-Apr-21 18:55N 35°36' E 140°06'0 0.0
2018-Apr-21 18:25N 35°36' E 140°06'0 0.0
2018-Apr-21 17:55N 35°36' E 140°06'0 0.0
2018-Apr-21 17:25N 35°36' E 140°06'0 0.0
2018-Apr-21 16:55N 35°36' E 140°06'0 0.0
2018-Apr-21 16:25N 35°36' E 140°06'0 0.0
2018-Apr-21 15:55N 35°36' E 140°06'0 0.0
2018-Apr-21 15:25N 35°36' E 140°06'0 0.0
2018-Apr-21 14:55N 35°36' E 140°06'0 0.0
2018-Apr-21 14:25N 35°36' E 140°06'0 0.0
2018-Apr-21 13:55N 35°36' E 140°06'0 0.0
2018-Apr-21 13:25N 35°36' E 140°06'0 0.0
2018-Apr-21 12:55N 35°36' E 140°06'0 0.0
2018-Apr-21 12:25N 35°36' E 140°06'0 0.0
2018-Apr-21 11:55N 35°36' E 140°06'0 0.0
2018-Apr-21 11:25N 35°36' E 140°06'0 0.0
2018-Apr-21 10:49N 35°36' E 140°06'0 0.0
2018-Apr-21 10:25N 35°36' E 140°06'0 0.0
2018-Apr-21 09:58N 35°36' E 140°06'0 0.0
2018-Apr-21 09:25N 35°36' E 140°06'0 0.0
2018-Apr-21 08:58N 35°36' E 140°06'0 0.0
2018-Apr-21 08:19N 35°36' E 140°06'0 0.7
2018-Apr-21 08:00N 35°36' E 140°06'1 1.6
2018-Apr-21 07:26N 35°36' E 140°05'0 0.0
2018-Apr-21 06:56N 35°36' E 140°05'0 0.0
2018-Apr-21 06:26N 35°36' E 140°05'0 0.0
2018-Apr-21 05:56N 35°36' E 140°05'0 0.0
2018-Apr-21 05:26N 35°36' E 140°05'0 0.0
2018-Apr-21 04:56N 35°36' E 140°05'1 1.9
2018-Apr-21 04:30N 35°35' E 140°05'612.4
2018-Apr-21 04:00N 35°32' E 139°58'612.4
2018-Apr-21 03:30N 35°29' E 139°52'612.3
2018-Apr-21 03:00N 35°25' E 139°46'510.1
2018-Apr-21 02:30N 35°24' E 139°39'0 0.2
2018-Apr-21 01:52N 35°25' E 139°39'0 0.1
2018-Apr-21 01:28N 35°25' E 139°39'0 0.0
2018-Apr-21 00:55N 35°25' E 139°39'0 0.0
2018-Apr-21 00:28N 35°25' E 139°39'0 0.0
2018-Apr-20 23:58N 35°25' E 139°39'0 0.0
2018-Apr-20 23:28N 35°25' E 139°39'1 2.0
2018-Apr-20 23:00N 35°24' E 139°40'4 8.6
2018-Apr-20 22:31N 35°26' E 139°45'713.4
2018-Apr-20 22:00N 35°30' E 139°51'713.4
2018-Apr-20 21:29N 35°34' E 139°58'3 5.0
2018-Apr-20 20:58N 35°35' E 140°01'0 0.0
2018-Apr-20 20:28N 35°35' E 140°01'0 0.0
2018-Apr-20 19:58N 35°35' E 140°01'0 0.0
2018-Apr-20 19:28N 35°35' E 140°01'0 0.0
2018-Apr-20 18:58N 35°35' E 140°01'0 0.0
2018-Apr-20 18:28N 35°35' E 140°01'0 0.0
2018-Apr-20 17:58N 35°35' E 140°01'0 0.0
2018-Apr-20 17:28N 35°35' E 140°01'0 0.0
2018-Apr-20 16:58N 35°35' E 140°01'0 0.0
2018-Apr-20 16:28N 35°35' E 140°01'0 0.0
2018-Apr-20 15:58N 35°35' E 140°01'0 0.0
2018-Apr-20 15:28N 35°35' E 140°01'0 0.0
2018-Apr-20 14:58N 35°35' E 140°01'0 0.0
2018-Apr-20 14:28N 35°35' E 140°01'0 0.0
2018-Apr-20 13:58N 35°35' E 140°01'0 0.0
2018-Apr-20 13:28N 35°35' E 140°01'0 0.0
2018-Apr-20 12:58N 35°35' E 140°01'0 0.0
2018-Apr-20 12:28N 35°35' E 140°01'0 0.0
2018-Apr-20 11:58N 35°35' E 140°01'0 0.1
2018-Apr-20 11:28N 35°35' E 140°01'0 0.0
2018-Apr-20 10:58N 35°35' E 140°01'0 0.0
2018-Apr-20 10:28N 35°35' E 140°01'0 0.0
2018-Apr-20 09:58N 35°35' E 140°01'0 0.0
2018-Apr-20 09:28N 35°35' E 140°01'3 6.5
2018-Apr-20 09:00N 35°36' E 140°04'1 1.7
2018-Apr-20 08:28N 35°36' E 140°05'0 0.0
2018-Apr-20 07:58N 35°36' E 140°05'0 0.0
2018-Apr-20 07:28N 35°36' E 140°05'0 0.0
2018-Apr-20 06:58N 35°36' E 140°05'0 0.0
2018-Apr-20 06:28N 35°36' E 140°05'0 0.0
2018-Apr-20 05:58N 35°36' E 140°05'1 1.5
2018-Apr-20 05:30N 35°35' E 140°05'1 2.0
2018-Apr-20 05:00N 35°35' E 140°04'0 0.3
2018-Apr-20 04:31N 35°35' E 140°04'4 6.8
2018-Apr-20 03:59N 35°33' E 139°60'611.5
2018-Apr-20 03:30N 35°30' E 139°54'611.5
2018-Apr-20 03:00N 35°27' E 139°48'611.2
2018-Apr-20 02:30N 35°24' E 139°42'3 4.8
2018-Apr-20 01:58N 35°25' E 139°39'0 0.0
2018-Apr-20 01:28N 35°25' E 139°39'0 0.0
2018-Apr-20 00:58N 35°25' E 139°39'0 0.0
2018-Apr-20 00:22N 35°25' E 139°39'0 0.0
2018-Apr-19 23:58N 35°25' E 139°39'0 0.0
2018-Apr-19 23:28N 35°25' E 139°39'0 0.5
2018-Apr-19 23:00N 35°24' E 139°39'3 6.5
2018-Apr-19 22:31N 35°25' E 139°43'813.7
2018-Apr-19 21:58N 35°29' E 139°51'613.6
2018-Apr-19 21:30N 35°33' E 139°57'4 7.9
2018-Apr-19 21:00N 35°35' E 140°01'0 0.0
2018-Apr-19 20:30N 35°35' E 140°01'0 0.0
2018-Apr-19 19:54N 35°35' E 140°01'0 0.0
2018-Apr-19 19:30N 35°35' E 140°01'0 0.0
2018-Apr-19 19:00N 35°35' E 140°01'0 0.0
2018-Apr-19 18:30N 35°35' E 140°01'0 0.0
2018-Apr-19 18:00N 35°35' E 140°01'0 0.0
2018-Apr-19 17:18N 35°35' E 140°01'0 0.0
2018-Apr-19 17:00N 35°35' E 140°01'0 0.1
2018-Apr-19 16:30N 35°35' E 140°01'0 0.0
2018-Apr-19 16:00N 35°35' E 140°01'0 0.0
2018-Apr-19 15:30N 35°35' E 140°01'0 0.0
2018-Apr-19 15:00N 35°35' E 140°01'0 0.0
2018-Apr-19 14:30N 35°35' E 140°01'0 0.0
2018-Apr-19 14:00N 35°35' E 140°01'0 0.0
2018-Apr-19 13:30N 35°35' E 140°01'0 0.0
2018-Apr-19 13:00N 35°35' E 140°01'0 0.0
2018-Apr-19 12:30N 35°35' E 140°01'0 0.0
2018-Apr-19 12:00N 35°35' E 140°01'0 0.0
2018-Apr-19 11:30N 35°35' E 140°01'0 0.0
2018-Apr-19 11:00N 35°35' E 140°01'0 0.0
2018-Apr-19 10:30N 35°35' E 140°01'0 0.0
2018-Apr-19 10:00N 35°35' E 140°01'0 0.0
2018-Apr-19 09:30N 35°35' E 140°01'0 0.0
2018-Apr-19 09:00N 35°35' E 140°01'0 0.0
2018-Apr-19 08:30N 35°35' E 140°01'0 0.0
2018-Apr-19 08:00N 35°35' E 140°01'0 0.1
2018-Apr-19 07:30N 35°35' E 140°01'4 7.5
2018-Apr-19 07:00N 35°36' E 140°05'0 0.1
2018-Apr-19 06:27N 35°36' E 140°05'0 0.0
2018-Apr-19 05:57N 35°36' E 140°05'0 0.0
2018-Apr-19 05:27N 35°36' E 140°05'0 0.0
2018-Apr-19 05:00N 35°36' E 140°05'0 0.0
2018-Apr-19 04:27N 35°36' E 140°05'0 0.0
2018-Apr-19 03:57N 35°36' E 140°05'3 7.3
2018-Apr-19 03:30N 35°33' E 140°03'2 5.0
2018-Apr-19 03:00N 35°31' E 140°03'0 0.0
2018-Apr-19 02:22N 35°31' E 140°03'0 0.0
2018-Apr-19 01:58N 35°31' E 140°03'0 0.0
2018-Apr-19 01:28N 35°31' E 140°03'0 0.0
2018-Apr-19 00:58N 35°31' E 140°03'0 0.0
2018-Apr-19 00:25N 35°31' E 140°03'0 0.0
2018-Apr-18 23:52N 35°31' E 140°03'0 0.0
2018-Apr-18 23:28N 35°31' E 140°03'0 0.0
2018-Apr-18 22:58N 35°31' E 140°03'0 0.0
2018-Apr-18 22:28N 35°31' E 140°03'0 0.0
2018-Apr-18 21:58N 35°31' E 140°03'2 4.6
2018-Apr-18 21:30N 35°33' E 140°02'4 8.6
2018-Apr-18 20:59N 35°36' E 140°06'0 0.0
2018-Apr-18 20:30N 35°36' E 140°06'0 0.0
2018-Apr-18 20:00N 35°36' E 140°06'0 0.0
2018-Apr-18 19:30N 35°36' E 140°06'0 0.0
2018-Apr-18 19:00N 35°36' E 140°06'0 0.0
2018-Apr-18 18:30N 35°36' E 140°06'0 0.0
2018-Apr-18 18:00N 35°36' E 140°06'0 0.0
2018-Apr-18 17:30N 35°36' E 140°06'0 0.0
2018-Apr-18 16:54N 35°36' E 140°06'0 0.0
2018-Apr-18 16:30N 35°36' E 140°06'0 0.0
2018-Apr-18 16:00N 35°36' E 140°06'0 0.0
2018-Apr-18 15:30N 35°36' E 140°06'0 0.0
2018-Apr-18 15:00N 35°36' E 140°06'0 0.0
2018-Apr-18 14:30N 35°36' E 140°06'0 0.0
2018-Apr-18 14:00N 35°36' E 140°06'0 0.0
2018-Apr-18 13:30N 35°36' E 140°06'0 0.0
2018-Apr-18 13:00N 35°36' E 140°06'0 0.0
2018-Apr-18 12:30N 35°36' E 140°06'0 0.0
2018-Apr-18 12:00N 35°36' E 140°06'0 0.0
2018-Apr-18 11:30N 35°36' E 140°06'0 0.1
2018-Apr-18 11:00N 35°36' E 140°06'0 0.1
2018-Apr-18 10:30N 35°36' E 140°06'0 0.0
2018-Apr-18 10:00N 35°36' E 140°06'0 0.0
2018-Apr-18 09:30N 35°36' E 140°06'0 0.0
2018-Apr-18 09:00N 35°36' E 140°06'0 0.0
2018-Apr-18 08:30N 35°36' E 140°06'0 0.0
2018-Apr-18 08:00N 35°36' E 140°06'0 0.0
2018-Apr-18 07:30N 35°36' E 140°06'0 0.0
2018-Apr-18 07:00N 35°36' E 140°06'0 0.0
2018-Apr-18 06:30N 35°36' E 140°06'0 0.0
2018-Apr-18 06:00N 35°36' E 140°06'0 0.0
2018-Apr-18 05:30N 35°36' E 140°06'0 0.0
2018-Apr-18 05:00N 35°36' E 140°06'0 0.0
2018-Apr-18 04:30N 35°36' E 140°06'0 0.0
2018-Apr-18 04:00N 35°36' E 140°06'0 0.0
2018-Apr-18 03:30N 35°36' E 140°06'0 0.0
2018-Apr-18 03:00N 35°36' E 140°06'0 0.0
2018-Apr-18 02:30N 35°36' E 140°06'0 0.0
2018-Apr-18 02:00N 35°36' E 140°06'0 0.0
2018-Apr-18 01:30N 35°36' E 140°06'0 0.0
2018-Apr-18 01:00N 35°36' E 140°06'0 0.0
2018-Apr-18 00:30N 35°36' E 140°06'0 0.0
2018-Apr-18 00:00N 35°36' E 140°06'0 0.0
2018-Apr-17 23:30N 35°36' E 140°06'0 0.0
2018-Apr-17 23:00N 35°36' E 140°06'0 0.0
2018-Apr-17 22:30N 35°36' E 140°06'0 0.0
2018-Apr-17 22:00N 35°36' E 140°06'0 0.0
2018-Apr-17 21:30N 35°36' E 140°06'0 0.0
2018-Apr-17 21:00N 35°36' E 140°06'0 0.0
2018-Apr-17 20:30N 35°36' E 140°06'0 0.0
2018-Apr-17 20:00N 35°36' E 140°06'0 0.0
2018-Apr-17 19:30N 35°36' E 140°06'0 0.0
2018-Apr-17 19:00N 35°36' E 140°06'0 0.0
2018-Apr-17 18:30N 35°36' E 140°06'0 0.0
2018-Apr-17 18:00N 35°36' E 140°06'0 0.0
2018-Apr-17 17:30N 35°36' E 140°06'0 0.0
2018-Apr-17 17:00N 35°36' E 140°06'0 0.0
2018-Apr-17 16:30N 35°36' E 140°06'0 0.0
2018-Apr-17 16:00N 35°36' E 140°06'0 0.0
2018-Apr-17 15:30N 35°36' E 140°06'0 0.0
2018-Apr-17 15:00N 35°36' E 140°06'0 0.0
2018-Apr-17 14:30N 35°36' E 140°06'0 0.0
2018-Apr-17 14:00N 35°36' E 140°06'0 0.0
2018-Apr-17 13:30N 35°36' E 140°06'0 0.0
2018-Apr-17 13:00N 35°36' E 140°06'0 0.0
2018-Apr-17 12:30N 35°36' E 140°06'0 0.0
2018-Apr-17 12:00N 35°36' E 140°06'0 0.0
2018-Apr-17 11:30N 35°36' E 140°06'0 0.0
2018-Apr-17 11:00N 35°36' E 140°06'0 0.0
2018-Apr-17 10:30N 35°36' E 140°06'0 0.0
2018-Apr-17 10:00N 35°36' E 140°06'0 0.0
2018-Apr-17 09:30N 35°36' E 140°06'0 0.0
2018-Apr-17 09:00N 35°36' E 140°06'0 0.0
2018-Apr-17 08:30N 35°36' E 140°06'0 0.0
2018-Apr-17 08:00N 35°36' E 140°06'1 2.0
2018-Apr-17 07:30N 35°36' E 140°05'0 0.0
2018-Apr-17 07:00N 35°36' E 140°05'0 0.1
2018-Apr-17 06:30N 35°36' E 140°05'0 0.1
2018-Apr-17 06:00N 35°36' E 140°05'0 0.0
2018-Apr-17 05:30N 35°36' E 140°05'0 0.0
2018-Apr-17 05:00N 35°36' E 140°05'0 0.5
2018-Apr-17 04:30N 35°36' E 140°05'611.4
2018-Apr-17 04:00N 35°33' E 139°59'612.0
2018-Apr-17 03:30N 35°29' E 139°53'612.0
2018-Apr-17 02:58N 35°26' E 139°47'511.9
2018-Apr-17 02:30N 35°23' E 139°41'2 3.5
2018-Apr-17 01:58N 35°25' E 139°39'0 0.1
2018-Apr-17 01:28N 35°25' E 139°39'0 0.1
2018-Apr-17 00:55N 35°25' E 139°39'0 0.0
2018-Apr-17 00:28N 35°25' E 139°39'0 0.1
2018-Apr-16 23:58N 35°25' E 139°39'0 0.1
2018-Apr-16 23:28N 35°25' E 139°39'0 0.5
2018-Apr-16 23:00N 35°24' E 139°39'3 5.8
2018-Apr-16 22:31N 35°24' E 139°43'713.3
2018-Apr-16 22:01N 35°28' E 139°50'914.0
2018-Apr-16 21:22N 35°34' E 139°58'2 6.7
2018-Apr-16 21:00N 35°35' E 140°01'0 0.0
2018-Apr-16 20:30N 35°35' E 140°01'0 0.0
2018-Apr-16 19:59N 35°35' E 140°01'0 0.0
2018-Apr-16 19:30N 35°35' E 140°01'0 0.0
2018-Apr-16 19:00N 35°35' E 140°01'0 0.0
2018-Apr-16 18:30N 35°35' E 140°01'0 0.0
2018-Apr-16 18:00N 35°35' E 140°01'0 0.1
2018-Apr-16 17:24N 35°35' E 140°00'0 0.0
2018-Apr-16 16:00N 35°35' E 140°00'0 0.0
2018-Apr-16 15:18N 35°35' E 140°00'0 0.0
2018-Apr-16 14:54N 35°35' E 140°00'0 0.0
2018-Apr-16 14:18N 35°35' E 140°00'0 0.0
2018-Apr-16 14:00N 35°35' E 140°00'0 0.0
2018-Apr-16 13:30N 35°35' E 140°00'0 0.0
2018-Apr-16 13:00N 35°35' E 140°00'0 0.0
2018-Apr-16 12:30N 35°35' E 140°00'0 0.0
2018-Apr-16 12:00N 35°35' E 140°00'0 0.0
2018-Apr-16 11:24N 35°35' E 140°00'0 0.0
2018-Apr-16 11:00N 35°35' E 140°00'0 0.0
2018-Apr-16 10:18N 35°35' E 140°00'0 0.0
2018-Apr-16 10:00N 35°35' E 140°00'0 0.0
2018-Apr-16 09:23N 35°35' E 140°00'0 0.0
2018-Apr-16 09:00N 35°35' E 140°00'0 0.2
2018-Apr-16 08:30N 35°35' E 140°01'4 7.6
2018-Apr-16 08:00N 35°36' E 140°05'0 0.0
2018-Apr-16 07:29N 35°36' E 140°05'0 0.0
2018-Apr-16 07:00N 35°36' E 140°05'0 0.0
2018-Apr-16 06:30N 35°36' E 140°05'0 0.0
2018-Apr-16 06:00N 35°36' E 140°05'0 0.0
2018-Apr-16 05:30N 35°36' E 140°05'0 0.0
2018-Apr-16 05:00N 35°36' E 140°05'1 1.4
2018-Apr-16 04:30N 35°35' E 140°05'811.8
2018-Apr-16 03:51N 35°31' E 139°57'412.4
2018-Apr-16 03:30N 35°29' E 139°52'612.1
2018-Apr-16 03:00N 35°26' E 139°46'510.9
2018-Apr-16 02:30N 35°24' E 139°40'1 1.2
2018-Apr-16 02:00N 35°25' E 139°39'0 0.0
2018-Apr-16 01:30N 35°25' E 139°39'0 0.0
2018-Apr-16 01:00N 35°25' E 139°39'0 0.0
2018-Apr-16 00:27N 35°25' E 139°39'0 0.0
2018-Apr-16 00:00N 35°25' E 139°39'0 0.0
2018-Apr-15 23:30N 35°25' E 139°39'1 2.1
2018-Apr-15 23:00N 35°24' E 139°40'4 7.4
2018-Apr-15 22:30N 35°25' E 139°44'612.8
2018-Apr-15 22:00N 35°29' E 139°50'  
Track history (hours):
 
Tides and Currents Weather Stations Pressure Air Temp Water Temp Dewpoint Dewpoint Depression Visibility Wind Speed Wind Dir Waves Ship Positions

Nissho Maru No.18

Last reported at 2018-Apr-25 21:57 UTC. Time now 2018-Apr-26 01:24 UTC.
Position N 35°31' E 140°02'.

Length 76 m; draft 4.7 m.

Type: Tanker. MMSI: 431101028.

Date/timePositionNaut miles runAvg speedWind from/ knotsBaromVisibWave heightAir tempDewpointWater temp
2018-Apr-25 21:57N 35°31' E 140°02'2 5.1
2018-Apr-25 21:30N 35°30' E 139°60'3 6.2
2018-Apr-25 21:00N 35°29' E 139°56'0 0.0
2018-Apr-25 20:23N 35°29' E 139°56'0 0.0
2018-Apr-25 19:59N 35°29' E 139°56'0 0.0
2018-Apr-25 19:29N 35°29' E 139°56'0 0.0
2018-Apr-25 18:56N 35°29' E 139°56'0 0.0
2018-Apr-25 18:29N 35°29' E 139°56'0 0.0
2018-Apr-25 17:59N 35°29' E 139°56'0 0.0
2018-Apr-25 17:29N 35°29' E 139°56'0 0.0
2018-Apr-25 16:59N 35°29' E 139°56'0 0.0
2018-Apr-25 16:29N 35°29' E 139°56'0 0.0
2018-Apr-25 15:53N 35°29' E 139°56'0 0.0
2018-Apr-25 15:29N 35°29' E 139°56'0 0.1
2018-Apr-25 14:59N 35°29' E 139°57'0 0.1
2018-Apr-25 14:26N 35°29' E 139°56'0 0.0
2018-Apr-25 13:53N 35°29' E 139°56'0 0.0
2018-Apr-25 13:29N 35°29' E 139°56'0 0.0
2018-Apr-25 12:53N 35°29' E 139°56'0 0.0
2018-Apr-25 12:20N 35°29' E 139°56'0 0.1
2018-Apr-25 11:53N 35°29' E 139°57'0 0.1
2018-Apr-25 11:26N 35°29' E 139°56'0 0.1
2018-Apr-25 10:56N 35°29' E 139°57'0 0.0
2018-Apr-25 10:29N 35°29' E 139°57'0 0.0
2018-Apr-25 09:59N 35°29' E 139°57'0 0.0
2018-Apr-25 09:29N 35°29' E 139°57'0 0.0
2018-Apr-25 08:59N 35°29' E 139°57'0 0.0
2018-Apr-25 08:26N 35°29' E 139°57'0 0.0
2018-Apr-25 07:59N 35°29' E 139°57'0 0.0
2018-Apr-25 07:26N 35°29' E 139°57'0 0.1
2018-Apr-25 06:29N 35°29' E 139°57'0 0.0
2018-Apr-25 05:59N 35°29' E 139°57'0 0.1
2018-Apr-25 05:23N 35°29' E 139°57'0 0.0
2018-Apr-25 04:56N 35°29' E 139°57'0 0.0
2018-Apr-25 04:11N 35°29' E 139°57'0 0.0
2018-Apr-25 03:59N 35°29' E 139°57'0 0.0
2018-Apr-25 03:29N 35°29' E 139°57'0 0.1
2018-Apr-25 02:53N 35°29' E 139°57'0 0.0
2018-Apr-25 02:29N 35°29' E 139°57'0 0.0
2018-Apr-25 01:59N 35°29' E 139°57'0 0.0
2018-Apr-25 01:23N 35°29' E 139°57'0 0.0
2018-Apr-25 00:59N 35°29' E 139°57'0 0.0
2018-Apr-25 00:29N 35°29' E 139°57'0 0.0
2018-Apr-24 23:50N 35°29' E 139°57'0 0.0
2018-Apr-24 23:26N 35°29' E 139°57'0 0.0
2018-Apr-24 22:53N 35°29' E 139°57'0 0.0
2018-Apr-24 22:17N 35°29' E 139°57'0 0.0
2018-Apr-24 21:53N 35°29' E 139°57'0 0.0
2018-Apr-24 21:29N 35°29' E 139°57'0 0.0
2018-Apr-24 20:26N 35°29' E 139°57'0 0.0
2018-Apr-24 19:59N 35°29' E 139°57'0 0.0
2018-Apr-24 19:17N 35°29' E 139°57'0 0.0
2018-Apr-24 18:59N 35°29' E 139°57'0 0.0
2018-Apr-24 18:29N 35°29' E 139°57'0 0.0
2018-Apr-24 17:56N 35°29' E 139°57'0 0.0
2018-Apr-24 17:29N 35°29' E 139°57'0 0.0
2018-Apr-24 16:59N 35°29' E 139°57'0 0.0
2018-Apr-24 16:29N 35°29' E 139°57'0 0.0
2018-Apr-24 15:56N 35°29' E 139°57'0 0.0
2018-Apr-24 15:29N 35°29' E 139°57'0 0.0
2018-Apr-24 14:56N 35°29' E 139°57'0 0.0
2018-Apr-24 14:29N 35°29' E 139°57'0 0.0
2018-Apr-24 13:59N 35°29' E 139°57'0 0.0
2018-Apr-24 13:29N 35°29' E 139°57'0 0.1
2018-Apr-24 12:59N 35°29' E 139°57'0 0.0
2018-Apr-24 12:23N 35°29' E 139°57'0 0.0
2018-Apr-24 11:38N 35°29' E 139°57'0 0.0
2018-Apr-24 11:11N 35°29' E 139°57'0 0.0
2018-Apr-24 10:53N 35°29' E 139°57'0 0.0
2018-Apr-24 10:23N 35°29' E 139°57'0 0.0
2018-Apr-24 09:56N 35°29' E 139°57'0 0.1
2018-Apr-24 09:29N 35°29' E 139°57'0 0.0
2018-Apr-24 08:59N 35°29' E 139°57'0 0.1
2018-Apr-24 08:30N 35°29' E 139°57'611.7
2018-Apr-24 08:00N 35°33' E 140°02'4 8.9
2018-Apr-24 07:30N 35°36' E 140°05'0 0.0
2018-Apr-24 06:55N 35°36' E 140°05'0 0.0
2018-Apr-24 06:25N 35°36' E 140°05'0 0.0
2018-Apr-24 05:58N 35°36' E 140°05'0 0.0
2018-Apr-24 05:28N 35°36' E 140°05'0 0.0
2018-Apr-24 04:56N 35°36' E 140°05'3 7.9
2018-Apr-24 04:30N 35°34' E 140°02'612.2
2018-Apr-24 04:00N 35°31' E 139°55'612.1
2018-Apr-24 03:30N 35°27' E 139°50'612.3
2018-Apr-24 03:00N 35°24' E 139°43'3 5.6
2018-Apr-24 02:28N 35°25' E 139°39'0 0.0
2018-Apr-24 01:58N 35°25' E 139°39'0 0.0
2018-Apr-24 01:28N 35°25' E 139°39'0 0.0
2018-Apr-24 00:58N 35°25' E 139°39'0 0.0
2018-Apr-24 00:28N 35°25' E 139°39'0 0.0
2018-Apr-23 23:58N 35°25' E 139°39'0 0.2
2018-Apr-23 23:29N 35°24' E 139°39'2 3.2
2018-Apr-23 23:00N 35°23' E 139°41'5 9.1
2018-Apr-23 22:30N 35°26' E 139°45'813.7
2018-Apr-23 21:56N 35°31' E 139°53'613.4
2018-Apr-23 21:29N 35°34' E 139°59'2 3.7
2018-Apr-23 21:00N 35°35' E 140°01'0 0.2
2018-Apr-23 20:30N 35°36' E 140°01'0 0.2
2018-Apr-23 20:00N 35°35' E 140°01'0 0.0
2018-Apr-23 19:30N 35°35' E 140°01'0 0.0
2018-Apr-23 19:00N 35°35' E 140°01'0 0.0
2018-Apr-23 18:30N 35°35' E 140°01'0 0.0
2018-Apr-23 18:00N 35°35' E 140°01'0 0.0
2018-Apr-23 17:30N 35°35' E 140°01'0 0.0
2018-Apr-23 17:00N 35°35' E 140°01'0 0.0
2018-Apr-23 16:30N 35°35' E 140°01'0 0.0
2018-Apr-23 16:00N 35°35' E 140°01'0 0.0
2018-Apr-23 15:30N 35°35' E 140°01'0 0.0
2018-Apr-23 15:00N 35°35' E 140°01'0 0.0
2018-Apr-23 14:30N 35°35' E 140°01'0 0.0
2018-Apr-23 14:00N 35°35' E 140°01'0 0.0
2018-Apr-23 13:30N 35°35' E 140°01'0 0.0
2018-Apr-23 13:00N 35°35' E 140°01'0 0.0
2018-Apr-23 12:30N 35°35' E 140°01'0 0.0
2018-Apr-23 12:00N 35°35' E 140°01'0 0.0
2018-Apr-23 11:30N 35°35' E 140°01'0 0.0
2018-Apr-23 11:00N 35°35' E 140°01'0 0.0
2018-Apr-23 10:30N 35°35' E 140°01'0 0.0
2018-Apr-23 10:00N 35°35' E 140°01'0 0.0
2018-Apr-23 09:30N 35°35' E 140°01'0 0.0
2018-Apr-23 09:00N 35°35' E 140°01'0 0.0
2018-Apr-23 08:30N 35°35' E 140°01'4 7.5
2018-Apr-23 08:00N 35°36' E 140°05'0 0.1
2018-Apr-23 07:27N 35°36' E 140°05'0 0.0
2018-Apr-23 07:00N 35°36' E 140°05'0 0.0
2018-Apr-23 06:27N 35°36' E 140°05'0 0.0
2018-Apr-23 05:57N 35°36' E 140°05'0 0.0
2018-Apr-23 05:27N 35°36' E 140°05'0 0.0
2018-Apr-23 04:57N 35°36' E 140°05'4 7.9
2018-Apr-23 04:30N 35°34' E 140°02'611.8
2018-Apr-23 04:00N 35°31' E 139°56'611.6
2018-Apr-23 03:30N 35°27' E 139°50'611.4
2018-Apr-23 03:00N 35°24' E 139°44'4 7.4
2018-Apr-23 02:30N 35°25' E 139°39'0 0.0
2018-Apr-23 02:00N 35°25' E 139°39'0 0.0
2018-Apr-23 01:30N 35°25' E 139°39'0 0.0
2018-Apr-23 01:00N 35°25' E 139°39'0 0.0
2018-Apr-23 00:30N 35°25' E 139°39'0 0.0
2018-Apr-23 00:00N 35°25' E 139°39'0 0.0
2018-Apr-22 23:30N 35°25' E 139°39'1 2.3
2018-Apr-22 23:00N 35°24' E 139°40'4 8.4
2018-Apr-22 22:30N 35°26' E 139°45'611.3
2018-Apr-22 22:00N 35°29' E 139°50'612.1
2018-Apr-22 21:30N 35°32' E 139°57'612.1
2018-Apr-22 21:00N 35°35' E 140°03'3 5.7
2018-Apr-22 20:30N 35°36' E 140°06'0 0.0
2018-Apr-22 19:55N 35°36' E 140°06'0 0.0
2018-Apr-22 19:25N 35°36' E 140°06'0 0.0
2018-Apr-22 18:55N 35°36' E 140°06'0 0.0
2018-Apr-22 18:28N 35°36' E 140°06'0 0.0
2018-Apr-22 17:58N 35°36' E 140°06'0 0.0
2018-Apr-22 17:25N 35°36' E 140°06'0 0.0
2018-Apr-22 16:49N 35°36' E 140°06'0 0.0
2018-Apr-22 16:25N 35°36' E 140°06'0 0.0
2018-Apr-22 15:55N 35°36' E 140°06'0 0.0
2018-Apr-22 15:25N 35°36' E 140°06'0 0.0
2018-Apr-22 14:55N 35°36' E 140°06'0 0.0
2018-Apr-22 14:25N 35°36' E 140°06'0 0.0
2018-Apr-22 13:58N 35°36' E 140°06'0 0.0
2018-Apr-22 13:25N 35°36' E 140°06'0 0.0
2018-Apr-22 12:55N 35°36' E 140°06'0 0.0
2018-Apr-22 12:25N 35°36' E 140°06'0 0.0
2018-Apr-22 11:55N 35°36' E 140°06'0 0.0
2018-Apr-22 11:25N 35°36' E 140°06'0 0.0
2018-Apr-22 10:55N 35°36' E 140°06'0 0.0
2018-Apr-22 10:25N 35°36' E 140°06'0 0.0
2018-Apr-22 09:55N 35°36' E 140°06'0 0.0
2018-Apr-22 09:25N 35°36' E 140°06'0 0.0
2018-Apr-22 08:55N 35°36' E 140°06'0 0.0
2018-Apr-22 08:25N 35°36' E 140°06'0 0.0
2018-Apr-22 07:58N 35°36' E 140°06'0 0.0
2018-Apr-22 07:25N 35°36' E 140°06'0 0.0
2018-Apr-22 06:55N 35°36' E 140°06'0 0.0
2018-Apr-22 06:25N 35°36' E 140°06'0 0.0
2018-Apr-22 05:55N 35°36' E 140°06'0 0.0
2018-Apr-22 05:28N 35°36' E 140°06'0 0.0
2018-Apr-22 04:55N 35°36' E 140°06'0 0.0
2018-Apr-22 04:28N 35°36' E 140°06'0 0.0
2018-Apr-22 03:55N 35°36' E 140°06'0 0.0
2018-Apr-22 03:25N 35°36' E 140°06'0 0.0
2018-Apr-22 02:58N 35°36' E 140°06'0 0.0
2018-Apr-22 02:25N 35°36' E 140°06'0 0.0
2018-Apr-22 01:58N 35°36' E 140°06'0 0.0
2018-Apr-22 01:28N 35°36' E 140°06'0 0.0
2018-Apr-22 00:55N 35°36' E 140°06'0 0.0
2018-Apr-22 00:28N 35°36' E 140°06'0 0.0
2018-Apr-21 23:55N 35°36' E 140°06'0 0.0
2018-Apr-21 23:25N 35°36' E 140°06'0 0.0
2018-Apr-21 22:58N 35°36' E 140°06'0 0.0
2018-Apr-21 22:25N 35°36' E 140°06'0 0.0
2018-Apr-21 21:58N 35°36' E 140°06'0 0.0
2018-Apr-21 21:25N 35°36' E 140°06'0 0.0
2018-Apr-21 20:55N 35°36' E 140°06'0 0.0
2018-Apr-21 20:28N 35°36' E 140°06'0 0.0
2018-Apr-21 19:55N 35°36' E 140°06'0 0.0
2018-Apr-21 19:25N 35°36' E 140°06'0 0.0
2018-Apr-21 18:55N 35°36' E 140°06'0 0.0
2018-Apr-21 18:25N 35°36' E 140°06'0 0.0
2018-Apr-21 17:55N 35°36' E 140°06'0 0.0
2018-Apr-21 17:25N 35°36' E 140°06'0 0.0
2018-Apr-21 16:55N 35°36' E 140°06'0 0.0
2018-Apr-21 16:25N 35°36' E 140°06'0 0.0
2018-Apr-21 15:55N 35°36' E 140°06'0 0.0
2018-Apr-21 15:25N 35°36' E 140°06'0 0.0
2018-Apr-21 14:55N 35°36' E 140°06'0 0.0
2018-Apr-21 14:25N 35°36' E 140°06'0 0.0
2018-Apr-21 13:55N 35°36' E 140°06'0 0.0
2018-Apr-21 13:25N 35°36' E 140°06'0 0.0
2018-Apr-21 12:55N 35°36' E 140°06'0 0.0
2018-Apr-21 12:25N 35°36' E 140°06'0 0.0
2018-Apr-21 11:55N 35°36' E 140°06'0 0.0
2018-Apr-21 11:25N 35°36' E 140°06'0 0.0
2018-Apr-21 10:49N 35°36' E 140°06'0 0.0
2018-Apr-21 10:25N 35°36' E 140°06'0 0.0
2018-Apr-21 09:58N 35°36' E 140°06'0 0.0
2018-Apr-21 09:25N 35°36' E 140°06'0 0.0
2018-Apr-21 08:58N 35°36' E 140°06'0 0.0
2018-Apr-21 08:19N 35°36' E 140°06'0 0.7
2018-Apr-21 08:00N 35°36' E 140°06'1 1.6
2018-Apr-21 07:26N 35°36' E 140°05'0 0.0
2018-Apr-21 06:56N 35°36' E 140°05'0 0.0
2018-Apr-21 06:26N 35°36' E 140°05'0 0.0
2018-Apr-21 05:56N 35°36' E 140°05'0 0.0
2018-Apr-21 05:26N 35°36' E 140°05'0 0.0
2018-Apr-21 04:56N 35°36' E 140°05'1 1.9
2018-Apr-21 04:30N 35°35' E 140°05'612.4
2018-Apr-21 04:00N 35°32' E 139°58'612.4
2018-Apr-21 03:30N 35°29' E 139°52'612.3
2018-Apr-21 03:00N 35°25' E 139°46'510.1
2018-Apr-21 02:30N 35°24' E 139°39'0 0.2
2018-Apr-21 01:52N 35°25' E 139°39'0 0.1
2018-Apr-21 01:28N 35°25' E 139°39'0 0.0
2018-Apr-21 00:55N 35°25' E 139°39'0 0.0
2018-Apr-21 00:28N 35°25' E 139°39'0 0.0
2018-Apr-20 23:58N 35°25' E 139°39'0 0.0
2018-Apr-20 23:28N 35°25' E 139°39'1 2.0
2018-Apr-20 23:00N 35°24' E 139°40'4 8.6
2018-Apr-20 22:31N 35°26' E 139°45'713.4
2018-Apr-20 22:00N 35°30' E 139°51'713.4
2018-Apr-20 21:29N 35°34' E 139°58'3 5.0
2018-Apr-20 20:58N 35°35' E 140°01'0 0.0
2018-Apr-20 20:28N 35°35' E 140°01'0 0.0
2018-Apr-20 19:58N 35°35' E 140°01'0 0.0
2018-Apr-20 19:28N 35°35' E 140°01'0 0.0
2018-Apr-20 18:58N 35°35' E 140°01'0 0.0
2018-Apr-20 18:28N 35°35' E 140°01'0 0.0
2018-Apr-20 17:58N 35°35' E 140°01'0 0.0
2018-Apr-20 17:28N 35°35' E 140°01'0 0.0
2018-Apr-20 16:58N 35°35' E 140°01'0 0.0
2018-Apr-20 16:28N 35°35' E 140°01'0 0.0
2018-Apr-20 15:58N 35°35' E 140°01'0 0.0
2018-Apr-20 15:28N 35°35' E 140°01'0 0.0
2018-Apr-20 14:58N 35°35' E 140°01'0 0.0
2018-Apr-20 14:28N 35°35' E 140°01'0 0.0
2018-Apr-20 13:58N 35°35' E 140°01'0 0.0
2018-Apr-20 13:28N 35°35' E 140°01'0 0.0
2018-Apr-20 12:58N 35°35' E 140°01'0 0.0
2018-Apr-20 12:28N 35°35' E 140°01'0 0.0
2018-Apr-20 11:58N 35°35' E 140°01'0 0.1
2018-Apr-20 11:28N 35°35' E 140°01'0 0.0
2018-Apr-20 10:58N 35°35' E 140°01'0 0.0
2018-Apr-20 10:28N 35°35' E 140°01'0 0.0
2018-Apr-20 09:58N 35°35' E 140°01'0 0.0
2018-Apr-20 09:28N 35°35' E 140°01'3 6.5
2018-Apr-20 09:00N 35°36' E 140°04'1 1.7
2018-Apr-20 08:28N 35°36' E 140°05'0 0.0
2018-Apr-20 07:58N 35°36' E 140°05'0 0.0
2018-Apr-20 07:28N 35°36' E 140°05'0 0.0
2018-Apr-20 06:58N 35°36' E 140°05'0 0.0
2018-Apr-20 06:28N 35°36' E 140°05'0 0.0
2018-Apr-20 05:58N 35°36' E 140°05'1 1.5
2018-Apr-20 05:30N 35°35' E 140°05'1 2.0
2018-Apr-20 05:00N 35°35' E 140°04'0 0.3
2018-Apr-20 04:31N 35°35' E 140°04'4 6.8
2018-Apr-20 03:59N 35°33' E 139°60'611.5
2018-Apr-20 03:30N 35°30' E 139°54'611.5
2018-Apr-20 03:00N 35°27' E 139°48'611.2
2018-Apr-20 02:30N 35°24' E 139°42'3 4.8
2018-Apr-20 01:58N 35°25' E 139°39'0 0.0
2018-Apr-20 01:28N 35°25' E 139°39'0 0.0
2018-Apr-20 00:58N 35°25' E 139°39'0 0.0
2018-Apr-20 00:22N 35°25' E 139°39'0 0.0
2018-Apr-19 23:58N 35°25' E 139°39'0 0.0
2018-Apr-19 23:28N 35°25' E 139°39'0 0.5
2018-Apr-19 23:00N 35°24' E 139°39'3 6.5
2018-Apr-19 22:31N 35°25' E 139°43'813.7
2018-Apr-19 21:58N 35°29' E 139°51'613.6
2018-Apr-19 21:30N 35°33' E 139°57'4 7.9
2018-Apr-19 21:00N 35°35' E 140°01'0 0.0
2018-Apr-19 20:30N 35°35' E 140°01'0 0.0
2018-Apr-19 19:54N 35°35' E 140°01'0 0.0
2018-Apr-19 19:30N 35°35' E 140°01'0 0.0
2018-Apr-19 19:00N 35°35' E 140°01'0 0.0
2018-Apr-19 18:30N 35°35' E 140°01'0 0.0
2018-Apr-19 18:00N 35°35' E 140°01'0 0.0
2018-Apr-19 17:18N 35°35' E 140°01'0 0.0
2018-Apr-19 17:00N 35°35' E 140°01'0 0.1
2018-Apr-19 16:30N 35°35' E 140°01'0 0.0
2018-Apr-19 16:00N 35°35' E 140°01'0 0.0
2018-Apr-19 15:30N 35°35' E 140°01'0 0.0
2018-Apr-19 15:00N 35°35' E 140°01'0 0.0
2018-Apr-19 14:30N 35°35' E 140°01'0 0.0
2018-Apr-19 14:00N 35°35' E 140°01'0 0.0
2018-Apr-19 13:30N 35°35' E 140°01'0 0.0
2018-Apr-19 13:00N 35°35' E 140°01'0 0.0
2018-Apr-19 12:30N 35°35' E 140°01'0 0.0
2018-Apr-19 12:00N 35°35' E 140°01'0 0.0
2018-Apr-19 11:30N 35°35' E 140°01'0 0.0
2018-Apr-19 11:00N 35°35' E 140°01'0 0.0
2018-Apr-19 10:30N 35°35' E 140°01'0 0.0
2018-Apr-19 10:00N 35°35' E 140°01'0 0.0
2018-Apr-19 09:30N 35°35' E 140°01'0 0.0
2018-Apr-19 09:00N 35°35' E 140°01'0 0.0
2018-Apr-19 08:30N 35°35' E 140°01'0 0.0
2018-Apr-19 08:00N 35°35' E 140°01'0 0.1
2018-Apr-19 07:30N 35°35' E 140°01'4 7.5
2018-Apr-19 07:00N 35°36' E 140°05'0 0.1
2018-Apr-19 06:27N 35°36' E 140°05'0 0.0
2018-Apr-19 05:57N 35°36' E 140°05'0 0.0
2018-Apr-19 05:27N 35°36' E 140°05'0 0.0
2018-Apr-19 05:00N 35°36' E 140°05'0 0.0
2018-Apr-19 04:27N 35°36' E 140°05'0 0.0
2018-Apr-19 03:57N 35°36' E 140°05'3 7.3
2018-Apr-19 03:30N 35°33' E 140°03'2 5.0
2018-Apr-19 03:00N 35°31' E 140°03'0 0.0
2018-Apr-19 02:22N 35°31' E 140°03'0 0.0
2018-Apr-19 01:58N 35°31' E 140°03'0 0.0
2018-Apr-19 01:28N 35°31' E 140°03'0 0.0
2018-Apr-19 00:58N 35°31' E 140°03'0 0.0
2018-Apr-19 00:25N 35°31' E 140°03'0 0.0
2018-Apr-18 23:52N 35°31' E 140°03'0 0.0
2018-Apr-18 23:28N 35°31' E 140°03'0 0.0
2018-Apr-18 22:58N 35°31' E 140°03'0 0.0
2018-Apr-18 22:28N 35°31' E 140°03'0 0.0
2018-Apr-18 21:58N 35°31' E 140°03'2 4.6
2018-Apr-18 21:30N 35°33' E 140°02'4 8.6
2018-Apr-18 20:59N 35°36' E 140°06'0 0.0
2018-Apr-18 20:30N 35°36' E 140°06'0 0.0
2018-Apr-18 20:00N 35°36' E 140°06'0 0.0
2018-Apr-18 19:30N 35°36' E 140°06'0 0.0
2018-Apr-18 19:00N 35°36' E 140°06'0 0.0
2018-Apr-18 18:30N 35°36' E 140°06'0 0.0
2018-Apr-18 18:00N 35°36' E 140°06'0 0.0
2018-Apr-18 17:30N 35°36' E 140°06'0 0.0
2018-Apr-18 16:54N 35°36' E 140°06'0 0.0
2018-Apr-18 16:30N 35°36' E 140°06'0 0.0
2018-Apr-18 16:00N 35°36' E 140°06'0 0.0
2018-Apr-18 15:30N 35°36' E 140°06'0 0.0
2018-Apr-18 15:00N 35°36' E 140°06'0 0.0
2018-Apr-18 14:30N 35°36' E 140°06'0 0.0
2018-Apr-18 14:00N 35°36' E 140°06'0 0.0
2018-Apr-18 13:30N 35°36' E 140°06'0 0.0
2018-Apr-18 13:00N 35°36' E 140°06'0 0.0
2018-Apr-18 12:30N 35°36' E 140°06'0 0.0
2018-Apr-18 12:00N 35°36' E 140°06'0 0.0
2018-Apr-18 11:30N 35°36' E 140°06'0 0.1
2018-Apr-18 11:00N 35°36' E 140°06'0 0.1
2018-Apr-18 10:30N 35°36' E 140°06'0 0.0
2018-Apr-18 10:00N 35°36' E 140°06'0 0.0
2018-Apr-18 09:30N 35°36' E 140°06'0 0.0
2018-Apr-18 09:00N 35°36' E 140°06'0 0.0
2018-Apr-18 08:30N 35°36' E 140°06'0 0.0
2018-Apr-18 08:00N 35°36' E 140°06'0 0.0
2018-Apr-18 07:30N 35°36' E 140°06'0 0.0
2018-Apr-18 07:00N 35°36' E 140°06'0 0.0
2018-Apr-18 06:30N 35°36' E 140°06'0 0.0
2018-Apr-18 06:00N 35°36' E 140°06'0 0.0
2018-Apr-18 05:30N 35°36' E 140°06'0 0.0
2018-Apr-18 05:00N 35°36' E 140°06'0 0.0
2018-Apr-18 04:30N 35°36' E 140°06'0 0.0
2018-Apr-18 04:00N 35°36' E 140°06'0 0.0
2018-Apr-18 03:30N 35°36' E 140°06'0 0.0
2018-Apr-18 03:00N 35°36' E 140°06'0 0.0
2018-Apr-18 02:30N 35°36' E 140°06'0 0.0
2018-Apr-18 02:00N 35°36' E 140°06'0 0.0
2018-Apr-18 01:30N 35°36' E 140°06'0 0.0
2018-Apr-18 01:00N 35°36' E 140°06'0 0.0
2018-Apr-18 00:30N 35°36' E 140°06'0 0.0
2018-Apr-18 00:00N 35°36' E 140°06'0 0.0
2018-Apr-17 23:30N 35°36' E 140°06'0 0.0
2018-Apr-17 23:00N 35°36' E 140°06'0 0.0
2018-Apr-17 22:30N 35°36' E 140°06'0 0.0
2018-Apr-17 22:00N 35°36' E 140°06'0 0.0
2018-Apr-17 21:30N 35°36' E 140°06'0 0.0
2018-Apr-17 21:00N 35°36' E 140°06'0 0.0
2018-Apr-17 20:30N 35°36' E 140°06'0 0.0
2018-Apr-17 20:00N 35°36' E 140°06'0 0.0
2018-Apr-17 19:30N 35°36' E 140°06'0 0.0
2018-Apr-17 19:00N 35°36' E 140°06'0 0.0
2018-Apr-17 18:30N 35°36' E 140°06'0 0.0
2018-Apr-17 18:00N 35°36' E 140°06'0 0.0
2018-Apr-17 17:30N 35°36' E 140°06'0 0.0
2018-Apr-17 17:00N 35°36' E 140°06'0 0.0
2018-Apr-17 16:30N 35°36' E 140°06'0 0.0
2018-Apr-17 16:00N 35°36' E 140°06'0 0.0
2018-Apr-17 15:30N 35°36' E 140°06'0 0.0
2018-Apr-17 15:00N 35°36' E 140°06'0 0.0
2018-Apr-17 14:30N 35°36' E 140°06'0 0.0
2018-Apr-17 14:00N 35°36' E 140°06'0 0.0
2018-Apr-17 13:30N 35°36' E 140°06'0 0.0
2018-Apr-17 13:00N 35°36' E 140°06'0 0.0
2018-Apr-17 12:30N 35°36' E 140°06'0 0.0
2018-Apr-17 12:00N 35°36' E 140°06'0 0.0
2018-Apr-17 11:30N 35°36' E 140°06'0 0.0
2018-Apr-17 11:00N 35°36' E 140°06'0 0.0
2018-Apr-17 10:30N 35°36' E 140°06'0 0.0
2018-Apr-17 10:00N 35°36' E 140°06'0 0.0
2018-Apr-17 09:30N 35°36' E 140°06'0 0.0
2018-Apr-17 09:00N 35°36' E 140°06'0 0.0
2018-Apr-17 08:30N 35°36' E 140°06'0 0.0
2018-Apr-17 08:00N 35°36' E 140°06'1 2.0
2018-Apr-17 07:30N 35°36' E 140°05'0 0.0
2018-Apr-17 07:00N 35°36' E 140°05'0 0.1
2018-Apr-17 06:30N 35°36' E 140°05'0 0.1
2018-Apr-17 06:00N 35°36' E 140°05'0 0.0
2018-Apr-17 05:30N 35°36' E 140°05'0 0.0
2018-Apr-17 05:00N 35°36' E 140°05'0 0.5
2018-Apr-17 04:30N 35°36' E 140°05'611.4
2018-Apr-17 04:00N 35°33' E 139°59'612.0
2018-Apr-17 03:30N 35°29' E 139°53'612.0
2018-Apr-17 02:58N 35°26' E 139°47'511.9
2018-Apr-17 02:30N 35°23' E 139°41'2 3.5
2018-Apr-17 01:58N 35°25' E 139°39'0 0.1
2018-Apr-17 01:28N 35°25' E 139°39'0 0.1
2018-Apr-17 00:55N 35°25' E 139°39'0 0.0
2018-Apr-17 00:28N 35°25' E 139°39'0 0.1
2018-Apr-16 23:58N 35°25' E 139°39'0 0.1
2018-Apr-16 23:28N 35°25' E 139°39'0 0.5
2018-Apr-16 23:00N 35°24' E 139°39'3 5.8
2018-Apr-16 22:31N 35°24' E 139°43'713.3
2018-Apr-16 22:01N 35°28' E 139°50'914.0
2018-Apr-16 21:22N 35°34' E 139°58'2 6.7
2018-Apr-16 21:00N 35°35' E 140°01'0 0.0
2018-Apr-16 20:30N 35°35' E 140°01'0 0.0
2018-Apr-16 19:59N 35°35' E 140°01'0 0.0
2018-Apr-16 19:30N 35°35' E 140°01'0 0.0
2018-Apr-16 19:00N 35°35' E 140°01'0 0.0
2018-Apr-16 18:30N 35°35' E 140°01'0 0.0
2018-Apr-16 18:00N 35°35' E 140°01'0 0.1
2018-Apr-16 17:24N 35°35' E 140°00'0 0.0
2018-Apr-16 16:00N 35°35' E 140°00'0 0.0
2018-Apr-16 15:18N 35°35' E 140°00'0 0.0
2018-Apr-16 14:54N 35°35' E 140°00'0 0.0
2018-Apr-16 14:18N 35°35' E 140°00'0 0.0
2018-Apr-16 14:00N 35°35' E 140°00'0 0.0
2018-Apr-16 13:30N 35°35' E 140°00'0 0.0
2018-Apr-16 13:00N 35°35' E 140°00'0 0.0
2018-Apr-16 12:30N 35°35' E 140°00'0 0.0
2018-Apr-16 12:00N 35°35' E 140°00'0 0.0
2018-Apr-16 11:24N 35°35' E 140°00'0 0.0
2018-Apr-16 11:00N 35°35' E 140°00'0 0.0
2018-Apr-16 10:18N 35°35' E 140°00'0 0.0
2018-Apr-16 10:00N 35°35' E 140°00'0 0.0
2018-Apr-16 09:23N 35°35' E 140°00'0 0.0
2018-Apr-16 09:00N 35°35' E 140°00'0 0.2
2018-Apr-16 08:30N 35°35' E 140°01'4 7.6
2018-Apr-16 08:00N 35°36' E 140°05'0 0.0
2018-Apr-16 07:29N 35°36' E 140°05'0 0.0
2018-Apr-16 07:00N 35°36' E 140°05'0 0.0
2018-Apr-16 06:30N 35°36' E 140°05'0 0.0
2018-Apr-16 06:00N 35°36' E 140°05'0 0.0
2018-Apr-16 05:30N 35°36' E 140°05'0 0.0
2018-Apr-16 05:00N 35°36' E 140°05'1 1.4
2018-Apr-16 04:30N 35°35' E 140°05'811.8
2018-Apr-16 03:51N 35°31' E 139°57'412.4
2018-Apr-16 03:30N 35°29' E 139°52'612.1
2018-Apr-16 03:00N 35°26' E 139°46'510.9
2018-Apr-16 02:30N 35°24' E 139°40'1 1.2
2018-Apr-16 02:00N 35°25' E 139°39'0 0.0
2018-Apr-16 01:30N 35°25' E 139°39'0 0.0
2018-Apr-16 01:00N 35°25' E 139°39'0 0.0
2018-Apr-16 00:27N 35°25' E 139°39'0 0.0
2018-Apr-16 00:00N 35°25' E 139°39'0 0.0
2018-Apr-15 23:30N 35°25' E 139°39'1 2.1
2018-Apr-15 23:00N 35°24' E 139°40'4 7.4
2018-Apr-15 22:30N 35°25' E 139°44'612.8
2018-Apr-15 22:00N 35°29' E 139°50'  

Dump ship's entire track history